Wednesday, November 14, 2018, 6:54 AM GMT
Back to Local

CWAF, Ile Rouge Meteorological Aeronautical Presentation System

Location: , , Canada Lat: 48.083
Local Time: 6:54 AM GMT ( 6:54 GMT) Lon: -69.55
Time Zone: GMT Elev: 16 ft

Show me the last for .
Show Coded

Time T Td Feel RH Dir Speed Gust Alt SLP Vis Weather Sky Remarks
2018-11-14 06:00 18 11 -8 75 290° 48 62 - - 0 Peak wind: 70 mph (61 kts) from 300° at 46 min
2018-11-14 05:00 20 13 -5 75 300° 54 64 - - 0 Peak wind: 69 mph (60 kts) from 290° at 43 min
2018-11-14 04:00 23 17 -1 76 300° 52 63 - - 0 Peak wind: 63 mph (55 kts) from 300° at 56 min
2018-11-14 03:00 27 21 7 78 300° 36 47 - - 0 Peak wind: 47 mph (41 kts) from 290° at 59 min
2018-11-14 02:00 31 30 17 97 300° 23 - - - 0 Peak wind: 27 mph (24 kts) from 300° at 53 min
2018-11-14 01:00 33 31 26 91 360° 8 - - - 0 None
2018-11-14 00:00 31 31 - 98 90° 2 - - - 0 None
2018-11-13 23:00 31 33 26 105 80° 6 - - - 0 None
2018-11-13 22:00 32 31 24 98 80° 8 - - - 0 None
2018-11-13 21:00 32 33 25 105 70° 7 - - - 0 None
2018-11-13 20:00 32 31 25 98 70° 7 - - - 0 None
2018-11-13 19:00 32 33 25 105 80° 7 - - - 0 None
2018-11-13 18:00 31 31 23 97 80° 9 - - - 0 None
2018-11-13 17:00 30 29 21 97 30° 12 - - - 0 None
2018-11-13 16:00 30 29 21 97 40° 9 - - - 0 None
2018-11-13 15:00 29 29 23 96 70° 7 - - - 0 None
2018-11-13 14:00 29 28 22 95 60° 7 - - - 0 None
2018-11-13 13:00 29 29 21 102 70° 7 - - - 0 None
2018-11-13 12:00 27 25 15 94 20° 14 - - - 0 None
2018-11-13 11:00 28 26 21 93 50° 6 - - - 0 None
2018-11-13 10:00 26 26 15 99 30° 12 - - - 0 None
2018-11-13 09:00 27 22 16 84 20° 12 - - - 0 None
2018-11-13 08:00 27 22 18 82 10° 9 - - - 0 None
2018-11-13 07:00 27 19 22 69 40° 5 - - - 0 None

Support USWX by starting your Amazon purchase here.